Time;durP1;ratioP1;P1;durP2;ratioP2;P2;SDS_P1;SDS_P2;PMS_P1;PMS_P2;Temp;Humidity;BMP_temperature;BMP_pressure;BME280_temperature;BME280_humidity;BME280_pressure;Samples;Min_cycle;Max_cycle;Signal;HPM_P1;HPM_P2
2023/12/16 00:00:31;;;;;;;7.87;3.57;;;8.60;99.90;;;;;;5070833;28;20403;-73
2023/12/16 00:02:56;;;;;;;12.27;4.03;;;8.60;99.90;;;;;;5072250;28;20205;-71
2023/12/16 00:05:22;;;;;;;7.30;3.20;;;8.50;99.90;;;;;;5072181;28;20178;-72
2023/12/16 00:07:47;;;;;;;12.93;4.23;;;8.50;99.90;;;;;;5070664;28;20186;-72
2023/12/16 00:10:13;;;;;;;5.90;4.27;;;8.50;99.90;;;;;;5071675;28;20177;-73
2023/12/16 00:12:39;;;;;;;8.10;4.13;;;8.50;99.90;;;;;;5071935;28;20190;-71
2023/12/16 00:15:08;;;;;;;11.57;3.90;;;8.40;99.90;;;;;;5072062;28;20545;-71
2023/12/16 00:17:33;;;;;;;6.00;3.40;;;8.40;99.90;;;;;;5072049;28;20652;-72
2023/12/16 00:19:59;;;;;;;15.70;4.33;;;8.40;99.90;;;;;;5072006;28;20408;-72
2023/12/16 00:22:25;;;;;;;9.83;3.23;;;8.40;99.90;;;;;;5072096;28;20186;-72
2023/12/16 00:24:50;;;;;;;5.30;3.23;;;8.50;99.90;;;;;;5072335;28;20694;-72
2023/12/16 00:27:16;;;;;;;11.77;4.90;;;8.40;99.90;;;;;;5070755;28;20416;-71
2023/12/16 00:29:41;;;;;;;14.10;5.03;;;8.30;99.90;;;;;;5070573;28;20206;-71
2023/12/16 00:32:07;;;;;;;8.93;4.97;;;8.30;99.90;;;;;;5071757;28;20258;-71
2023/12/16 00:34:33;;;;;;;5.83;4.90;;;8.30;99.90;;;;;;5070715;28;20177;-72
2023/12/16 00:37:00;;;;;;;10.80;4.10;;;8.30;99.90;;;;;;5070510;28;20408;-72
2023/12/16 00:39:25;;;;;;;14.07;3.87;;;8.30;99.90;;;;;;5071829;28;20170;-71
2023/12/16 00:41:51;;;;;;;17.87;4.43;;;8.30;99.90;;;;;;5071780;28;20436;-71
2023/12/16 00:44:16;;;;;;;11.07;4.07;;;8.30;99.90;;;;;;5071816;28;20280;-72
2023/12/16 00:46:42;;;;;;;8.90;3.83;;;8.30;99.90;;;;;;5071502;28;20625;-72
2023/12/16 00:49:08;;;;;;;8.23;4.57;;;8.30;99.90;;;;;;5071447;28;20202;-72
2023/12/16 00:51:33;;;;;;;8.83;4.50;;;8.20;99.90;;;;;;5071657;28;20725;-71
2023/12/16 00:53:59;;;;;;;6.67;4.00;;;8.20;99.90;;;;;;5071264;28;20202;-72
2023/12/16 00:56:24;;;;;;;6.37;4.50;;;8.20;99.90;;;;;;5071747;28;20224;-71
2023/12/16 00:58:50;;;;;;;10.67;6.20;;;8.20;99.90;;;;;;5071645;28;20540;-73
2023/12/16 01:01:15;;;;;;;9.63;4.33;;;8.20;99.90;;;;;;5071414;28;20186;-71
2023/12/16 01:03:41;;;;;;;18.23;5.10;;;8.10;99.90;;;;;;5071608;28;20175;-72
2023/12/16 01:06:06;;;;;;;7.57;4.63;;;8.10;99.90;;;;;;5071603;28;20174;-72
2023/12/16 01:08:33;;;;;;;9.57;4.70;;;8.10;99.90;;;;;;5071540;28;20198;-72
2023/12/16 01:10:59;;;;;;;13.73;4.40;;;8.10;99.90;;;;;;5071371;28;20186;-72
2023/12/16 01:13:25;;;;;;;9.60;4.57;;;8.00;99.90;;;;;;5073216;28;20404;-72
2023/12/16 01:15:50;;;;;;;11.20;4.33;;;8.10;99.90;;;;;;5074190;28;20419;-72
2023/12/16 01:18:16;;;;;;;9.30;5.37;;;8.10;99.90;;;;;;5075299;28;20253;-71
2023/12/16 01:20:42;;;;;;;14.50;5.17;;;8.00;99.90;;;;;;5075219;28;20170;-71
2023/12/16 01:23:07;;;;;;;7.57;4.20;;;8.00;99.90;;;;;;5075339;28;20163;-72
2023/12/16 01:25:33;;;;;;;14.27;4.50;;;8.10;99.90;;;;;;5075357;28;20737;-71
2023/12/16 01:27:58;;;;;;;13.53;4.10;;;8.10;99.90;;;;;;5074845;28;20173;-72
2023/12/16 01:30:24;;;;;;;9.33;4.53;;;8.10;99.90;;;;;;5074467;28;20193;-71
2023/12/16 01:32:51;;;;;;;13.67;5.93;;;8.10;99.90;;;;;;5075077;28;20185;-71
2023/12/16 01:35:17;;;;;;;13.43;5.90;;;8.10;99.90;;;;;;5074920;28;20162;-74
2023/12/16 01:37:42;;;;;;;7.60;4.80;;;8.10;99.90;;;;;;5074598;28;20399;-71
2023/12/16 01:40:08;;;;;;;11.10;4.43;;;8.10;99.90;;;;;;5074993;28;20842;-71
2023/12/16 01:42:34;;;;;;;8.10;4.60;;;8.10;99.90;;;;;;5074907;28;20681;-71
2023/12/16 01:44:59;;;;;;;9.17;4.53;;;8.10;99.90;;;;;;5074918;28;20487;-72
2023/12/16 01:47:26;;;;;;;10.13;4.23;;;8.10;99.90;;;;;;5075054;28;20690;-72
2023/12/16 01:49:52;;;;;;;5.60;4.50;;;8.20;99.90;;;;;;5074752;28;20190;-72
2023/12/16 01:52:18;;;;;;;11.80;4.20;;;8.10;99.90;;;;;;5074659;28;20973;-73
2023/12/16 01:54:44;;;;;;;7.67;4.87;;;8.10;99.90;;;;;;5074542;28;20435;-72
2023/12/16 01:57:11;;;;;;;10.10;4.53;;;8.10;99.90;;;;;;5074673;28;20400;-71
2023/12/16 01:59:36;;;;;;;13.43;4.77;;;8.10;99.90;;;;;;5073358;28;20404;-72
2023/12/16 02:02:03;;;;;;;13.03;5.13;;;8.10;99.90;;;;;;5074631;28;20420;-72
2023/12/16 02:04:29;;;;;;;10.03;4.67;;;8.00;99.90;;;;;;5074629;28;20510;-72
2023/12/16 02:06:55;;;;;;;7.60;4.40;;;8.10;99.90;;;;;;5074606;28;20412;-71
2023/12/16 02:09:21;;;;;;;7.33;3.80;;;8.10;99.90;;;;;;5074291;28;20479;-71
2023/12/16 02:11:47;;;;;;;9.13;5.17;;;8.00;99.90;;;;;;5074440;28;20452;-71
2023/12/16 02:14:13;;;;;;;12.37;4.50;;;8.00;99.90;;;;;;5074526;28;20159;-72
2023/12/16 02:16:38;;;;;;;4.90;3.80;;;8.00;99.90;;;;;;5074394;28;20235;-72
2023/12/16 02:19:10;;;;;;;9.33;4.67;;;8.00;99.90;;;;;;5074151;28;20166;-72
2023/12/16 02:21:36;;;;;;;8.70;4.30;;;8.00;99.90;;;;;;5074321;28;20193;-73
2023/12/16 02:24:01;;;;;;;11.60;5.37;;;8.00;99.90;;;;;;5073910;28;20404;-74
2023/12/16 02:26:27;;;;;;;8.00;4.33;;;8.00;99.90;;;;;;5074257;28;20272;-72
2023/12/16 02:28:52;;;;;;;9.60;3.73;;;8.00;99.90;;;;;;5074042;28;20219;-75
2023/12/16 02:31:18;;;;;;;19.23;4.83;;;8.00;99.90;;;;;;5074098;28;20186;-73
2023/12/16 02:33:45;;;;;;;11.20;5.10;;;8.00;99.90;;;;;;5073799;28;20514;-73
2023/12/16 02:36:11;;;;;;;10.60;3.70;;;8.10;99.90;;;;;;5073864;28;20188;-72
2023/12/16 02:38:36;;;;;;;3.83;3.43;;;8.00;99.90;;;;;;5073939;28;20401;-72
2023/12/16 02:41:02;;;;;;;8.33;4.73;;;8.10;99.90;;;;;;5073787;28;20186;-73
2023/12/16 02:43:27;;;;;;;7.90;4.53;;;8.10;99.90;;;;;;5073752;28;20174;-72
2023/12/16 02:45:53;;;;;;;14.20;3.90;;;8.10;99.90;;;;;;5073839;28;20194;-72
2023/12/16 02:48:18;;;;;;;15.47;4.20;;;8.10;99.90;;;;;;5072425;28;20193;-73
2023/12/16 02:50:44;;;;;;;6.07;4.00;;;8.00;99.90;;;;;;5073432;28;20186;-73
2023/12/16 02:53:09;;;;;;;13.23;4.53;;;8.00;99.90;;;;;;5073347;28;20174;-72
2023/12/16 02:55:35;;;;;;;6.27;3.50;;;8.00;99.90;;;;;;5073771;28;20166;-72
2023/12/16 02:58:00;;;;;;;12.20;4.33;;;8.00;99.90;;;;;;5073637;28;20154;-73
2023/12/16 03:00:26;;;;;;;10.87;4.57;;;7.90;99.90;;;;;;5073358;28;20224;-74
2023/12/16 03:02:52;;;;;;;13.20;4.27;;;7.90;99.90;;;;;;5073287;28;20166;-72
2023/12/16 03:05:17;;;;;;;14.33;3.60;;;7.90;99.90;;;;;;5072182;28;20617;-72
2023/12/16 03:07:43;;;;;;;6.43;3.50;;;7.90;99.90;;;;;;5072214;28;20621;-73
2023/12/16 03:10:08;;;;;;;9.77;4.00;;;8.00;99.90;;;;;;5073148;28;20201;-72
2023/12/16 03:12:34;;;;;;;11.03;4.17;;;8.00;99.90;;;;;;5071837;28;20193;-72
2023/12/16 03:14:59;;;;;;;5.50;4.10;;;8.00;99.90;;;;;;5073273;28;20154;-72
2023/12/16 03:17:25;;;;;;;8.77;4.07;;;8.00;99.90;;;;;;5073218;28;20166;-73
2023/12/16 03:19:50;;;;;;;5.37;3.60;;;7.90;99.90;;;;;;5073126;28;20252;-74
2023/12/16 03:22:16;;;;;;;8.20;4.43;;;7.90;99.90;;;;;;5072979;28;20273;-73
2023/12/16 03:24:42;;;;;;;10.63;4.57;;;7.90;99.90;;;;;;5073190;28;20597;-73
2023/12/16 03:27:07;;;;;;;5.20;3.13;;;7.90;99.90;;;;;;5073128;28;20202;-72
2023/12/16 03:29:33;;;;;;;6.73;2.90;;;7.80;99.90;;;;;;5072795;28;20193;-72
2023/12/16 03:31:58;;;;;;;6.77;3.57;;;7.90;99.90;;;;;;5072865;28;20186;-73
2023/12/16 03:34:24;;;;;;;8.63;3.43;;;7.90;99.90;;;;;;5072869;28;20166;-72
2023/12/16 03:36:49;;;;;;;5.53;2.90;;;7.90;99.90;;;;;;5072105;28;20652;-72
2023/12/16 03:39:15;;;;;;;3.80;3.50;;;7.90;99.90;;;;;;5072662;28;20193;-72
2023/12/16 03:41:40;;;;;;;9.83;3.20;;;7.90;99.90;;;;;;5072857;28;20188;-72
2023/12/16 03:44:06;;;;;;;10.03;4.47;;;7.90;99.90;;;;;;5072724;28;20602;-72
2023/12/16 03:46:31;;;;;;;9.03;3.70;;;7.90;99.90;;;;;;5072620;28;20195;-72
2023/12/16 03:48:57;;;;;;;4.27;3.30;;;7.80;99.90;;;;;;5072428;28;20216;-73
2023/12/16 03:51:23;;;;;;;4.53;3.90;;;7.90;99.90;;;;;;5072511;28;20201;-72
2023/12/16 03:53:49;;;;;;;10.23;4.17;;;7.90;99.90;;;;;;5072356;28;20177;-72
2023/12/16 03:56:15;;;;;;;6.23;3.73;;;7.90;99.90;;;;;;5072495;28;20424;-72
2023/12/16 03:58:41;;;;;;;5.87;3.70;;;7.90;99.90;;;;;;5072555;28;20180;-71
2023/12/16 04:01:13;;;;;;;9.30;3.97;;;8.00;99.90;;;;;;5072149;28;21003;-73
2023/12/16 04:03:39;;;;;;;11.60;5.23;;;7.90;99.90;;;;;;5072285;28;20178;-72
2023/12/16 04:06:04;;;;;;;12.20;3.90;;;8.00;99.90;;;;;;5071079;28;20470;-72
2023/12/16 04:08:30;;;;;;;8.70;3.80;;;8.00;99.90;;;;;;5072232;28;20452;-71
2023/12/16 04:10:55;;;;;;;10.03;4.27;;;8.00;99.90;;;;;;5071960;28;20194;-73
2023/12/16 04:13:21;;;;;;;7.90;2.90;;;7.90;99.90;;;;;;5072129;28;20166;-72
2023/12/16 04:15:52;;;;;;;5.40;3.10;;;7.90;99.90;;;;;;5072127;28;20581;-73
2023/12/16 04:18:18;;;;;;;4.40;2.70;;;8.00;99.90;;;;;;5072373;28;20192;-74
2023/12/16 04:20:43;;;;;;;10.43;4.13;;;8.00;99.90;;;;;;5070629;28;20436;-72
2023/12/16 04:23:09;;;;;;;3.80;2.87;;;8.00;99.90;;;;;;5070696;28;20176;-72
2023/12/16 04:25:34;;;;;;;14.23;4.00;;;7.90;99.90;;;;;;5072113;28;20170;-71
2023/12/16 04:28:02;;;;;;;9.13;2.67;;;8.00;99.90;;;;;;5070625;28;20663;-71
2023/12/16 04:30:27;;;;;;;8.13;3.40;;;7.90;99.90;;;;;;5071694;28;20202;-71
2023/12/16 04:32:53;;;;;;;9.80;3.60;;;7.90;99.90;;;;;;5071893;28;20408;-71
2023/12/16 04:35:18;;;;;;;6.90;3.60;;;7.90;99.90;;;;;;5071934;28;20162;-72
2023/12/16 04:37:44;;;;;;;5.80;3.13;;;7.90;99.90;;;;;;5071915;28;20174;-72
2023/12/16 04:40:10;;;;;;;3.83;2.60;;;8.10;99.90;;;;;;5071778;28;20169;-72
2023/12/16 04:42:35;;;;;;;4.20;2.93;;;8.00;99.90;;;;;;5071658;28;20676;-72
2023/12/16 04:45:01;;;;;;;9.03;3.80;;;8.00;99.90;;;;;;5070526;28;20677;-72
2023/12/16 04:47:26;;;;;;;6.37;2.53;;;7.90;99.90;;;;;;5071728;28;20166;-73
2023/12/16 04:49:52;;;;;;;6.30;2.90;;;7.90;99.90;;;;;;5071556;28;20677;-72
2023/12/16 04:52:18;;;;;;;5.07;3.07;;;8.00;99.90;;;;;;5071632;28;20190;-72
2023/12/16 04:54:45;;;;;;;5.90;3.33;;;8.00;99.90;;;;;;5071717;28;20174;-72
2023/12/16 04:57:10;;;;;;;9.27;2.60;;;7.90;99.90;;;;;;5070375;28;20900;-73
2023/12/16 04:59:36;;;;;;;4.23;2.37;;;7.90;99.90;;;;;;5071456;28;20414;-72
2023/12/16 05:02:02;;;;;;;10.03;3.87;;;8.00;99.90;;;;;;5071589;28;20718;-73
2023/12/16 05:04:27;;;;;;;6.93;2.60;;;8.00;99.90;;;;;;5071641;28;20162;-72
2023/12/16 05:06:53;;;;;;;7.27;2.77;;;8.00;99.90;;;;;;5071586;28;20450;-72
2023/12/16 05:09:19;;;;;;;9.43;2.80;;;8.00;99.90;;;;;;5071332;28;20186;-73
2023/12/16 05:11:45;;;;;;;6.90;3.33;;;8.00;99.90;;;;;;5071529;28;20185;-72
2023/12/16 05:14:10;;;;;;;7.23;4.40;;;8.00;99.90;;;;;;5071549;28;20245;-72
2023/12/16 05:16:36;;;;;;;5.80;3.00;;;8.00;99.90;;;;;;5071598;28;20442;-72
2023/12/16 05:19:03;;;;;;;5.57;2.40;;;7.90;99.90;;;;;;5071472;28;20253;-71
2023/12/16 05:21:29;;;;;;;3.77;2.63;;;7.90;99.90;;;;;;5071513;28;20189;-71
2023/12/16 05:23:54;;;;;;;14.03;2.93;;;8.00;99.90;;;;;;5071504;28;20428;-72
2023/12/16 05:26:21;;;;;;;9.53;2.77;;;8.00;99.90;;;;;;5071470;28;20465;-72
2023/12/16 05:28:46;;;;;;;8.00;2.30;;;7.90;99.90;;;;;;5071417;28;20182;-72
2023/12/16 05:31:12;;;;;;;6.53;2.57;;;8.00;99.90;;;;;;5071038;28;20421;-72
2023/12/16 05:33:37;;;;;;;6.10;2.30;;;7.90;99.90;;;;;;5071348;28;20166;-72
2023/12/16 05:36:03;;;;;;;8.43;2.80;;;8.00;99.90;;;;;;5071466;28;20178;-73
2023/12/16 05:38:29;;;;;;;10.93;3.73;;;8.00;99.90;;;;;;5071334;28;20170;-73
2023/12/16 05:40:54;;;;;;;8.97;3.17;;;7.90;99.90;;;;;;5071077;28;20802;-72
2023/12/16 05:43:20;;;;;;;4.83;3.00;;;7.90;99.90;;;;;;5071201;28;20170;-72
2023/12/16 05:45:45;;;;;;;5.33;2.50;;;7.90;99.90;;;;;;5069951;28;20209;-73
2023/12/16 05:48:11;;;;;;;12.83;2.93;;;7.80;99.90;;;;;;5071017;28;20167;-72
2023/12/16 05:50:37;;;;;;;4.83;2.30;;;7.80;99.90;;;;;;5070793;28;20178;-72
2023/12/16 05:53:02;;;;;;;5.43;2.27;;;7.70;99.90;;;;;;5070887;28;20174;-72
2023/12/16 05:55:28;;;;;;;3.47;1.83;;;7.70;99.90;;;;;;5071239;28;20388;-71
2023/12/16 05:57:53;;;;;;;6.10;2.20;;;7.80;99.90;;;;;;5071166;28;20625;-72
2023/12/16 06:00:19;;;;;;;2.40;2.30;;;7.80;99.90;;;;;;5073823;28;20258;-72
2023/12/16 06:02:44;;;;;;;7.90;3.50;;;7.70;99.90;;;;;;5074521;28;20220;-71
2023/12/16 06:05:10;;;;;;;6.70;3.00;;;7.70;99.90;;;;;;5073382;28;20169;-71
2023/12/16 06:07:36;;;;;;;5.17;2.47;;;7.70;99.90;;;;;;5074672;28;20204;-73
2023/12/16 06:10:01;;;;;;;10.50;2.40;;;7.60;99.90;;;;;;5074351;28;20673;-72
2023/12/16 06:12:27;;;;;;;4.23;2.40;;;7.70;99.90;;;;;;5074355;28;20684;-72
2023/12/16 06:14:52;;;;;;;6.67;2.70;;;7.60;99.90;;;;;;5074532;28;20691;-72
2023/12/16 06:17:18;;;;;;;5.10;3.10;;;7.60;99.90;;;;;;5074495;28;20163;-72
2023/12/16 06:19:43;;;;;;;5.80;2.10;;;7.60;99.90;;;;;;5072991;28;20185;-72
2023/12/16 06:22:09;;;;;;;3.30;2.47;;;7.60;99.90;;;;;;5074238;28;20186;-72
2023/12/16 06:24:34;;;;;;;3.30;2.10;;;7.60;99.90;;;;;;5074335;28;20249;-72
2023/12/16 06:27:00;;;;;;;6.53;3.13;;;7.60;99.90;;;;;;5074296;28;20171;-72
2023/12/16 06:29:25;;;;;;;4.50;2.97;;;7.70;99.90;;;;;;5074034;28;20234;-72
2023/12/16 06:31:51;;;;;;;6.80;3.00;;;7.70;99.90;;;;;;5072814;28;20182;-72
2023/12/16 06:34:16;;;;;;;13.20;3.03;;;7.80;99.90;;;;;;5074119;28;20177;-72
2023/12/16 06:36:42;;;;;;;3.93;1.80;;;7.80;99.90;;;;;;5074089;28;20216;-73
2023/12/16 06:39:08;;;;;;;11.77;2.50;;;7.90;99.90;;;;;;5074076;28;20167;-72
2023/12/16 06:41:33;;;;;;;12.13;2.60;;;7.90;99.90;;;;;;5073865;28;20236;-72
2023/12/16 06:43:59;;;;;;;5.03;2.17;;;8.00;99.90;;;;;;5073907;28;20219;-72
2023/12/16 06:46:24;;;;;;;6.70;2.20;;;7.80;99.90;;;;;;5074403;28;20163;-73
2023/12/16 06:48:50;;;;;;;6.57;2.30;;;7.80;99.90;;;;;;5073788;28;20680;-71
2023/12/16 06:51:15;;;;;;;6.70;2.23;;;7.70;99.90;;;;;;5073742;28;20186;-71
2023/12/16 06:53:41;;;;;;;8.33;2.30;;;7.80;99.90;;;;;;5073564;28;20182;-72
2023/12/16 06:56:07;;;;;;;10.03;3.27;;;7.70;99.90;;;;;;5073645;28;20170;-72
2023/12/16 06:58:33;;;;;;;5.30;3.27;;;7.70;99.90;;;;;;5073637;28;20174;-73
2023/12/16 07:00:58;;;;;;;10.13;2.13;;;7.70;99.90;;;;;;5073384;28;20934;-73
2023/12/16 07:03:24;;;;;;;3.70;2.10;;;7.70;99.90;;;;;;5072153;28;20257;-72
2023/12/16 07:05:49;;;;;;;4.33;1.80;;;7.70;99.90;;;;;;5073592;28;20251;-72
2023/12/16 07:08:15;;;;;;;9.27;2.50;;;7.60;99.90;;;;;;5073427;28;20170;-72
2023/12/16 07:10:41;;;;;;;4.90;2.00;;;7.70;99.90;;;;;;5072031;28;20224;-73
2023/12/16 07:13:07;;;;;;;2.67;1.93;;;7.60;99.90;;;;;;5073321;28;20162;-72
2023/12/16 07:15:32;;;;;;;13.33;3.03;;;7.60;99.90;;;;;;5073422;28;20192;-72
2023/12/16 07:17:58;;;;;;;3.63;2.10;;;7.50;99.90;;;;;;5072035;28;20767;-71
2023/12/16 07:20:23;;;;;;;9.77;3.20;;;7.50;99.90;;;;;;5073132;28;20197;-72
2023/12/16 07:22:49;;;;;;;4.70;1.60;;;7.60;99.90;;;;;;5073062;28;20220;-72
2023/12/16 07:25:14;;;;;;;2.60;1.87;;;7.60;99.90;;;;;;5073075;28;20178;-72
2023/12/16 07:27:40;;;;;;;12.87;2.67;;;7.60;99.90;;;;;;5073550;28;20253;-72
2023/12/16 07:30:06;;;;;;;8.57;2.10;;;7.60;99.90;;;;;;5072713;28;20210;-72
2023/12/16 07:32:31;;;;;;;2.60;2.00;;;7.60;99.90;;;;;;5072841;28;20197;-73
2023/12/16 07:34:57;;;;;;;4.70;2.43;;;7.60;99.90;;;;;;5072887;28;20499;-73
2023/12/16 07:37:22;;;;;;;6.47;2.43;;;7.60;99.90;;;;;;5072956;28;20609;-72
2023/12/16 07:39:48;;;;;;;8.50;2.67;;;7.60;99.90;;;;;;5072750;28;20170;-73
2023/12/16 07:42:14;;;;;;;3.80;2.40;;;7.50;99.90;;;;;;5071398;28;20197;-73
2023/12/16 07:44:39;;;;;;;5.37;2.53;;;7.50;99.90;;;;;;5072710;28;20300;-74
2023/12/16 07:47:05;;;;;;;4.87;2.50;;;7.50;99.90;;;;;;5072692;28;20166;-72
2023/12/16 07:49:30;;;;;;;7.30;2.53;;;7.40;99.90;;;;;;5072181;28;20653;-72
2023/12/16 07:51:57;;;;;;;6.00;2.80;;;7.40;99.90;;;;;;5072284;28;20186;-73
2023/12/16 07:54:23;;;;;;;5.70;3.43;;;7.30;99.90;;;;;;5072226;28;20227;-72
2023/12/16 07:56:48;;;;;;;14.07;3.40;;;7.30;99.90;;;;;;5072375;28;20408;-72
2023/12/16 07:59:14;;;;;;;11.27;3.07;;;7.30;99.90;;;;;;5070890;28;21294;-72
2023/12/16 08:01:39;;;;;;;4.10;2.70;;;7.30;99.90;;;;;;5071890;28;20232;-74
2023/12/16 08:04:05;;;;;;;7.67;2.17;;;7.40;99.90;;;;;;5072089;28;20170;-72
2023/12/16 08:06:30;;;;;;;4.47;3.03;;;7.40;99.90;;;;;;5072078;28;20165;-73
2023/12/16 08:08:56;;;;;;;3.87;2.60;;;7.50;99.90;;;;;;5071760;28;20213;-73
2023/12/16 08:11:21;;;;;;;2.97;2.00;;;7.50;99.90;;;;;;5072029;28;20595;-73
2023/12/16 08:13:47;;;;;;;7.73;2.47;;;7.60;99.90;;;;;;5071910;28;20167;-72
2023/12/16 08:16:12;;;;;;;4.53;2.10;;;7.70;99.90;;;;;;5072057;28;20171;-72
2023/12/16 08:18:38;;;;;;;6.73;2.43;;;7.80;99.90;;;;;;5072062;28;20649;-73
2023/12/16 08:21:04;;;;;;;11.83;2.67;;;7.90;99.90;;;;;;5070395;28;20226;-72
2023/12/16 08:23:29;;;;;;;5.83;2.97;;;8.20;99.90;;;;;;5071453;28;20169;-72
2023/12/16 08:25:55;;;;;;;8.93;2.77;;;9.00;99.90;;;;;;5070671;28;20182;-73
2023/12/16 08:28:23;;;;;;;7.63;2.70;;;9.90;99.90;;;;;;5070579;28;20174;-72
2023/12/16 08:30:50;;;;;;;7.10;2.67;;;10.80;99.90;;;;;;5071613;28;20174;-73
2023/12/16 08:33:16;;;;;;;6.23;2.53;;;11.60;99.90;;;;;;5071837;28;20770;-72
2023/12/16 08:35:44;;;;;;;4.30;2.30;;;12.20;99.90;;;;;;5071692;28;20397;-71
2023/12/16 08:38:10;;;;;;;5.97;2.60;;;12.70;99.90;;;;;;5071581;28;20536;-72
2023/12/16 08:40:36;;;;;;;6.83;2.40;;;13.40;99.90;;;;;;5071401;28;20400;-71
2023/12/16 08:43:01;;;;;;;4.67;2.37;;;14.20;99.90;;;;;;5071453;28;20208;-71
2023/12/16 08:45:27;;;;;;;10.10;2.57;;;14.90;99.90;;;;;;5071609;28;20528;-72
2023/12/16 08:47:52;;;;;;;2.67;2.43;;;15.60;99.90;;;;;;5071306;28;20184;-74
2023/12/16 08:50:18;;;;;;;3.37;2.37;;;15.90;99.90;;;;;;5071242;28;20743;-73
2023/12/16 08:52:43;;;;;;;4.50;1.97;;;16.40;98.50;;;;;;5071224;28;20706;-72
2023/12/16 08:55:09;;;;;;;6.00;2.70;;;17.00;95.30;;;;;;5071266;28;20163;-69
2023/12/16 08:57:34;;;;;;;4.50;2.30;;;17.50;91.00;;;;;;5071820;28;20162;-70
2023/12/16 09:00:00;;;;;;;5.00;3.07;;;17.60;82.40;;;;;;5071563;28;20728;-69
2023/12/16 09:02:25;;;;;;;7.43;2.50;;;18.00;81.40;;;;;;5071614;28;20186;-70
2023/12/16 09:04:51;;;;;;;3.70;2.37;;;18.40;76.60;;;;;;5071703;28;20253;-70
2023/12/16 09:07:17;;;;;;;11.37;2.30;;;18.90;68.50;;;;;;5071658;28;20574;-70
2023/12/16 09:09:44;;;;;;;4.93;2.53;;;18.90;63.40;;;;;;5071355;28;20212;-70
2023/12/16 09:12:11;;;;;;;6.30;2.30;;;18.70;61.00;;;;;;5071480;28;20424;-70
2023/12/16 09:14:37;;;;;;;4.70;2.60;;;18.20;59.20;;;;;;5071668;28;20404;-69
2023/12/16 09:17:03;;;;;;;8.40;2.50;;;17.90;59.90;;;;;;5071587;28;20416;-69
2023/12/16 09:19:28;;;;;;;3.83;2.07;;;18.10;60.60;;;;;;5071321;28;20404;-69
2023/12/16 09:21:54;;;;;;;2.70;1.70;;;18.50;59.10;;;;;;5071384;28;20204;-69
2023/12/16 09:24:20;;;;;;;4.23;1.90;;;18.20;58.50;;;;;;5071452;28;20162;-69
2023/12/16 09:26:46;;;;;;;3.60;2.50;;;18.30;58.50;;;;;;5070205;28;20178;-70
2023/12/16 09:29:12;;;;;;;3.30;2.10;;;18.30;58.20;;;;;;5071181;28;20456;-69
2023/12/16 09:31:38;;;;;;;6.10;1.97;;;18.60;58.20;;;;;;5071338;28;20178;-70
2023/12/16 09:34:04;;;;;;;6.30;2.50;;;18.80;56.50;;;;;;5072246;28;20951;-69
2023/12/16 09:36:30;;;;;;;2.60;2.00;;;18.60;56.10;;;;;;5075089;28;20173;-70
2023/12/16 09:38:57;;;;;;;8.07;2.20;;;17.90;56.10;;;;;;5074909;28;20408;-70
2023/12/16 09:41:33;;;;;;;4.40;2.27;;;16.80;56.70;;;;;;5075025;28;20432;-69
2023/12/16 09:44:00;;;;;;;6.40;2.20;;;15.50;58.70;;;;;;5075003;28;20439;-69
2023/12/16 09:46:29;;;;;;;4.90;2.40;;;14.60;61.80;;;;;;5074740;28;20415;-70
2023/12/16 09:48:55;;;;;;;8.07;2.60;;;13.90;66.80;;;;;;5074780;28;20523;-69
2023/12/16 09:51:24;;;;;;;6.63;2.20;;;13.40;71.80;;;;;;5074624;28;20423;-69
2023/12/16 09:53:50;;;;;;;9.80;2.70;;;12.90;78.30;;;;;;5073367;28;20189;-70
2023/12/16 09:56:17;;;;;;;5.13;2.10;;;12.40;88.00;;;;;;5074772;28;20435;-69
2023/12/16 09:58:44;;;;;;;6.00;2.70;;;11.90;95.00;;;;;;5074774;28;20478;-69
2023/12/16 10:01:11;;;;;;;6.60;3.90;;;11.60;99.60;;;;;;5074442;28;20921;-69
2023/12/16 10:03:38;;;;;;;4.53;2.87;;;11.50;99.90;;;;;;5074554;28;20424;-69
2023/12/16 10:06:09;;;;;;;4.33;1.60;;;11.40;99.90;;;;;;5074648;28;20404;-70
2023/12/16 10:08:35;;;;;;;7.30;2.00;;;11.40;99.90;;;;;;5074503;28;20448;-69
2023/12/16 10:11:04;;;;;;;12.30;2.47;;;11.40;99.90;;;;;;5074299;28;20420;-69
2023/12/16 10:13:32;;;;;;;7.90;2.33;;;11.30;99.90;;;;;;5074399;28;20809;-70
2023/12/16 10:15:58;;;;;;;8.63;2.47;;;11.30;99.90;;;;;;5074083;28;20392;-70
2023/12/16 10:18:26;;;;;;;7.93;1.93;;;11.50;99.90;;;;;;5074329;28;20396;-69
2023/12/16 10:20:55;;;;;;;8.60;2.80;;;11.70;99.90;;;;;;5072812;28;20463;-70
2023/12/16 10:23:20;;;;;;;7.13;2.77;;;11.70;99.90;;;;;;5074229;28;20403;-69
2023/12/16 10:25:46;;;;;;;3.97;1.80;;;11.80;99.90;;;;;;5073091;28;20710;-69
2023/12/16 10:28:11;;;;;;;3.87;1.57;;;11.90;99.90;;;;;;5072960;28;20737;-69
2023/12/16 10:30:37;;;;;;;6.60;2.07;;;11.90;99.90;;;;;;5072618;28;20207;-69
2023/12/16 10:33:03;;;;;;;6.40;3.93;;;11.90;99.90;;;;;;5074036;28;20625;-69
2023/12/16 10:35:30;;;;;;;4.70;2.00;;;11.80;99.90;;;;;;5074363;28;20242;-68
2023/12/16 10:37:55;;;;;;;4.50;2.10;;;11.70;99.90;;;;;;5074250;28;20428;-68
2023/12/16 10:40:22;;;;;;;6.70;1.77;;;11.60;99.90;;;;;;5073824;28;20440;-68
2023/12/16 10:42:48;;;;;;;14.90;2.67;;;11.70;99.90;;;;;;5073873;28;20672;-68
2023/12/16 10:45:13;;;;;;;3.53;2.20;;;11.70;99.90;;;;;;5073651;28;20465;-69
2023/12/16 10:47:39;;;;;;;9.37;2.67;;;11.90;99.90;;;;;;5073909;28;20178;-69
2023/12/16 10:50:09;;;;;;;6.40;2.27;;;12.00;99.90;;;;;;5073859;28;20190;-70
2023/12/16 10:52:51;;;;;;;4.80;2.07;;;12.20;99.90;;;;;;5073724;28;20832;-68
2023/12/16 10:55:22;;;;;;;5.87;1.70;;;12.60;99.90;;;;;;5073866;28;20411;-69
2023/12/16 10:58:06;;;;;;;6.87;1.90;;;13.10;99.90;;;;;;5073761;28;20400;-69
2023/12/16 11:00:34;;;;;;;8.40;2.30;;;13.30;99.90;;;;;;5073491;28;20411;-69
2023/12/16 11:03:22;;;;;;;6.33;2.00;;;13.50;99.90;;;;;;5073481;28;20491;-69
2023/12/16 11:05:56;;;;;;;3.30;2.20;;;13.80;99.90;;;;;;5073611;28;20405;-69
2023/12/16 11:08:23;;;;;;;7.07;1.73;;;14.40;99.90;;;;;;5072169;28;20415;-69
2023/12/16 11:10:49;;;;;;;1.83;1.57;;;15.00;99.90;;;;;;5073252;28;20435;-69
2023/12/16 11:13:16;;;;;;;5.20;2.03;;;15.70;99.90;;;;;;5073305;28;20783;-70
2023/12/16 11:15:42;;;;;;;7.57;1.60;;;16.40;95.60;;;;;;5073338;28;20401;-70
2023/12/16 11:18:12;;;;;;;5.90;1.77;;;16.60;90.70;;;;;;5073326;28;20393;-69
2023/12/16 11:20:42;;;;;;;6.33;2.73;;;17.00;89.20;;;;;;5072947;28;20483;-70
2023/12/16 11:23:10;;;;;;;2.90;1.87;;;17.30;86.30;;;;;;5073376;28;20484;-70
2023/12/16 11:25:36;;;;;;;3.67;2.60;;;17.70;84.70;;;;;;5073195;28;20419;-71
2023/12/16 11:28:03;;;;;;;3.90;1.60;;;17.90;79.70;;;;;;5073072;28;20824;-69
2023/12/16 11:30:30;;;;;;;6.03;2.63;;;17.90;78.20;;;;;;5072379;28;20799;-69
2023/12/16 11:32:57;;;;;;;3.07;1.70;;;17.90;76.90;;;;;;5071591;28;20748;-67
2023/12/16 11:35:47;;;;;;;4.93;1.60;;;17.80;75.30;;;;;;5072863;28;20737;-69
2023/12/16 11:38:42;;;;;;;5.03;1.83;;;17.60;75.80;;;;;;5072916;28;20407;-69
2023/12/16 11:41:09;;;;;;;7.53;2.30;;;17.80;74.50;;;;;;5072584;28;20791;-71
2023/12/16 11:43:51;;;;;;;4.07;1.47;;;18.20;76.60;;;;;;5072592;28;20401;-70
2023/12/16 11:46:33;;;;;;;2.90;1.77;;;18.50;70.50;;;;;;5072823;28;20407;-69
2023/12/16 11:49:04;;;;;;;7.33;1.90;;;18.40;72.10;;;;;;5071126;28;20535;-70
2023/12/16 11:51:31;;;;;;;9.73;2.83;;;18.00;68.40;;;;;;5072480;28;20423;-70
2023/12/16 11:53:59;;;;;;;2.80;1.43;;;17.40;69.70;;;;;;5072332;28;20424;-69
2023/12/16 11:56:26;;;;;;;11.30;2.33;;;16.90;71.90;;;;;;5071905;28;20408;-69
2023/12/16 11:58:57;;;;;;;7.70;2.20;;;16.80;75.10;;;;;;5072578;28;20411;-69
2023/12/16 12:01:26;;;;;;;8.77;2.17;;;16.70;75.70;;;;;;5072370;28;20795;-69
2023/12/16 12:03:52;;;;;;;7.37;1.80;;;16.50;77.50;;;;;;5072388;28;20404;-69
2023/12/16 12:06:18;;;;;;;4.87;2.27;;;16.70;80.00;;;;;;5072487;28;20404;-70
2023/12/16 12:08:46;;;;;;;7.50;3.20;;;16.70;79.10;;;;;;5072261;28;20452;-70
2023/12/16 12:11:12;;;;;;;7.83;2.30;;;16.70;80.20;;;;;;5072047;28;20178;-69
2023/12/16 12:13:37;;;;;;;8.87;1.73;;;16.70;80.90;;;;;;5072261;28;20397;-69
2023/12/16 12:16:04;;;;;;;4.60;1.90;;;16.50;78.90;;;;;;5072259;28;20926;-69
2023/12/16 12:18:30;;;;;;;5.73;2.30;;;16.50;79.60;;;;;;5072151;28;20166;-70
2023/12/16 12:20:56;;;;;;;6.93;1.90;;;16.40;79.80;;;;;;5071945;28;20424;-69
2023/12/16 12:23:21;;;;;;;15.70;2.30;;;16.60;83.00;;;;;;5071929;28;20220;-69
2023/12/16 12:25:56;;;;;;;4.77;2.10;;;16.70;82.50;;;;;;5072139;28;20166;-69
2023/12/16 12:28:22;;;;;;;8.73;2.87;;;16.60;81.20;;;;;;5070719;28;20166;-69
2023/12/16 12:30:48;;;;;;;6.03;2.10;;;16.10;80.70;;;;;;5071806;28;20435;-69
2023/12/16 12:33:13;;;;;;;6.70;3.07;;;15.90;85.00;;;;;;5071914;28;20166;-69
2023/12/16 12:35:39;;;;;;;2.13;1.80;;;15.70;85.50;;;;;;5071899;28;20916;-70
2023/12/16 12:38:05;;;;;;;10.97;2.77;;;15.60;87.50;;;;;;5070489;28;20174;-69
2023/12/16 12:40:30;;;;;;;9.23;2.17;;;15.40;89.60;;;;;;5071751;28;20238;-70
2023/12/16 12:42:57;;;;;;;4.90;2.00;;;15.40;91.20;;;;;;5071828;28;20253;-69
2023/12/16 12:45:35;;;;;;;13.87;3.00;;;14.90;91.80;;;;;;5071827;28;20170;-69